createdAt,value
2019-04-07T00:01:20.662Z,9.77
2019-04-07T00:03:48.339Z,9.30
2019-04-07T00:06:15.670Z,9.60
2019-04-07T00:08:43.268Z,9.70
2019-04-07T00:11:10.584Z,9.87
2019-04-07T00:13:37.469Z,9.17
2019-04-07T00:16:04.656Z,9.90
2019-04-07T00:18:32.051Z,10.03
2019-04-07T00:21:00.278Z,9.33
2019-04-07T00:23:27.020Z,9.97
2019-04-07T00:25:53.862Z,9.93
2019-04-07T00:28:21.155Z,10.47
2019-04-07T00:30:47.991Z,10.20
2019-04-07T00:33:16.419Z,10.53
2019-04-07T00:35:43.609Z,10.77
2019-04-07T00:38:10.655Z,10.53
2019-04-07T00:40:37.379Z,10.23
2019-04-07T00:43:04.533Z,10.60
2019-04-07T00:45:36.057Z,10.37
2019-04-07T00:48:02.809Z,10.10
2019-04-07T00:50:31.672Z,9.87
2019-04-07T00:52:59.040Z,10.40
2019-04-07T00:55:26.282Z,9.73
2019-04-07T00:57:53.607Z,9.50
2019-04-07T01:00:22.032Z,10.10
2019-04-07T01:02:49.215Z,10.00
2019-04-07T01:05:17.176Z,9.93
2019-04-07T01:07:43.940Z,11.07
2019-04-07T01:10:10.999Z,11.50
2019-04-07T01:12:38.394Z,10.77
2019-04-07T01:15:05.483Z,11.33
2019-04-07T01:17:32.223Z,11.43
2019-04-07T01:19:58.957Z,11.20
2019-04-07T01:22:25.780Z,12.80
2019-04-07T01:24:52.664Z,11.33
2019-04-07T01:27:20.409Z,11.27
2019-04-07T01:29:47.564Z,10.77
2019-04-07T01:32:14.794Z,10.97
2019-04-07T01:34:41.744Z,11.43
2019-04-07T01:37:08.769Z,11.53
2019-04-07T01:39:35.808Z,11.07
2019-04-07T01:42:21.380Z,11.40
2019-04-07T01:45:13.996Z,10.50
2019-04-07T01:47:52.318Z,10.80
2019-04-07T01:50:51.794Z,11.13
2019-04-07T01:53:25.661Z,10.90
2019-04-07T01:56:21.774Z,10.57
2019-04-07T01:58:58.310Z,9.67
2019-04-07T02:01:40.468Z,10.73
2019-04-07T02:04:42.471Z,10.40
2019-04-07T02:07:32.575Z,12.20
2019-04-07T02:10:17.654Z,11.03
2019-04-07T02:13:03.175Z,11.43
2019-04-07T02:16:05.020Z,11.70
2019-04-07T02:18:51.390Z,11.30
2019-04-07T02:21:26.163Z,10.67
2019-04-07T02:24:14.663Z,11.10
2019-04-07T02:26:47.195Z,11.97
2019-04-07T02:29:45.885Z,11.47
2019-04-07T02:32:31.317Z,12.93
2019-04-07T02:35:07.570Z,13.60
2019-04-07T02:37:55.354Z,14.67
2019-04-07T02:40:31.361Z,14.27
2019-04-07T02:43:16.275Z,13.57
2019-04-07T02:46:06.474Z,13.63
2019-04-07T02:48:56.338Z,13.77
2019-04-07T02:51:42.067Z,11.87
2019-04-07T02:54:20.666Z,12.97
2019-04-07T02:57:13.263Z,14.53
2019-04-07T02:59:51.383Z,13.37
2019-04-07T03:02:29.136Z,13.67
2019-04-07T03:05:08.976Z,14.70
2019-04-07T03:07:44.551Z,13.80
2019-04-07T03:10:26.322Z,14.23
2019-04-07T03:13:10.993Z,14.27
2019-04-07T03:15:42.885Z,14.10
2019-04-07T03:18:47.112Z,14.10
2019-04-07T03:21:31.078Z,13.53
2019-04-07T03:24:24.459Z,14.50
2019-04-07T03:27:17.873Z,15.20
2019-04-07T03:29:59.582Z,15.40
2019-04-07T03:32:50.654Z,16.23
2019-04-07T03:35:26.593Z,16.40
2019-04-07T03:38:12.146Z,15.30
2019-04-07T03:40:44.313Z,15.57
2019-04-07T03:43:21.544Z,16.10
2019-04-07T03:46:12.765Z,15.80
2019-04-07T03:48:47.985Z,14.90
2019-04-07T03:51:24.354Z,13.80
2019-04-07T03:54:00.667Z,14.20
2019-04-07T03:57:05.285Z,14.20
2019-04-07T03:59:57.893Z,13.57
2019-04-07T04:02:46.861Z,13.53
2019-04-07T04:05:22.164Z,13.20
2019-04-07T04:07:57.986Z,13.90
2019-04-07T04:10:36.948Z,14.43
2019-04-07T04:13:32.722Z,13.80
2019-04-07T04:16:08.662Z,13.00
2019-04-07T04:18:35.753Z,13.60
2019-04-07T04:21:03.533Z,12.50
2019-04-07T04:23:31.710Z,12.83
2019-04-07T04:25:59.067Z,12.47
2019-04-07T04:28:25.964Z,11.83
2019-04-07T04:30:56.565Z,11.53
2019-04-07T04:33:23.648Z,11.07
2019-04-07T04:35:51.941Z,11.53
2019-04-07T04:38:20.631Z,11.33
2019-04-07T04:40:49.368Z,11.57
2019-04-07T04:43:16.363Z,11.67
2019-04-07T04:45:43.079Z,10.93
2019-04-07T04:48:10.285Z,11.80
2019-04-07T04:50:37.382Z,13.03
2019-04-07T04:53:04.835Z,11.83
2019-04-07T04:55:31.971Z,12.77
2019-04-07T04:57:58.977Z,12.60
2019-04-07T05:00:26.661Z,13.53
2019-04-07T05:02:53.723Z,13.30
2019-04-07T05:05:21.205Z,13.90
2019-04-07T05:07:57.786Z,12.57
2019-04-07T05:10:17.139Z,13.40
2019-04-07T05:12:44.595Z,13.03
2019-04-07T05:15:11.994Z,13.23
2019-04-07T05:17:39.041Z,13.70
2019-04-07T05:20:05.914Z,12.80
2019-04-07T05:22:33.288Z,13.30
2019-04-07T05:25:00.136Z,12.60
2019-04-07T05:27:27.585Z,13.27
2019-04-07T05:29:54.595Z,12.47
2019-04-07T05:32:21.359Z,11.43
2019-04-07T05:34:48.853Z,12.00
2019-04-07T05:37:15.596Z,12.00
2019-04-07T05:39:42.581Z,12.67
2019-04-07T05:42:09.279Z,11.63
2019-04-07T05:44:36.413Z,13.03
2019-04-07T05:47:04.032Z,13.13
2019-04-07T05:49:31.396Z,12.80
2019-04-07T05:51:59.552Z,13.53
2019-04-07T05:54:27.492Z,14.23
2019-04-07T05:56:58.699Z,12.37
2019-04-07T05:59:26.383Z,12.40
2019-04-07T06:01:59.280Z,13.40
2019-04-07T06:04:21.822Z,13.87
2019-04-07T06:06:52.535Z,12.30
2019-04-07T06:09:19.028Z,14.50
2019-04-07T06:11:46.436Z,13.83
2019-04-07T06:14:16.694Z,13.70
2019-04-07T06:16:46.919Z,15.03
2019-04-07T06:19:13.912Z,13.13
2019-04-07T06:21:41.549Z,14.47
2019-04-07T06:24:08.981Z,12.90
2019-04-07T06:26:37.120Z,13.80
2019-04-07T06:29:03.994Z,14.23
2019-04-07T06:31:33.276Z,13.50
2019-04-07T06:34:00.705Z,13.20
2019-04-07T06:36:27.565Z,14.70
2019-04-07T06:38:54.765Z,14.57
2019-04-07T06:41:21.819Z,13.70
2019-04-07T06:43:48.619Z,14.03
2019-04-07T06:46:43.968Z,13.07
2019-04-07T06:49:20.701Z,12.93
2019-04-07T06:51:55.976Z,13.27
2019-04-07T06:54:55.995Z,13.73
2019-04-07T06:57:49.730Z,14.53
2019-04-07T07:00:30.114Z,14.30
2019-04-07T07:03:25.664Z,14.43
2019-04-07T07:06:11.217Z,14.33
2019-04-07T07:08:48.511Z,15.27
2019-04-07T07:11:34.770Z,15.73
2019-04-07T07:14:43.296Z,15.17
2019-04-07T07:17:17.476Z,14.40
2019-04-07T07:20:01.718Z,15.47
2019-04-07T07:22:35.700Z,14.50
2019-04-07T07:25:05.208Z,16.50
2019-04-07T07:27:33.770Z,14.90
2019-04-07T07:30:01.246Z,14.43
2019-04-07T07:32:28.197Z,15.27
2019-04-07T07:34:55.275Z,14.30
2019-04-07T07:37:25.273Z,14.03
2019-04-07T07:39:51.952Z,13.80
2019-04-07T07:42:21.502Z,14.27
2019-04-07T07:44:48.266Z,13.87
2019-04-07T07:47:15.383Z,14.17
2019-04-07T07:49:42.427Z,13.87
2019-04-07T07:52:09.404Z,13.20
2019-04-07T07:54:36.754Z,13.40
2019-04-07T07:57:08.867Z,12.90
2019-04-07T07:59:38.975Z,13.10
2019-04-07T08:02:04.839Z,12.70
2019-04-07T08:04:31.618Z,12.73
2019-04-07T08:06:58.989Z,13.20
2019-04-07T08:09:27.085Z,11.60
2019-04-07T08:11:56.700Z,11.13
2019-04-07T08:14:23.516Z,10.77
2019-04-07T08:16:51.078Z,11.13
2019-04-07T08:19:18.995Z,10.40
2019-04-07T08:21:50.461Z,10.37
2019-04-07T08:24:19.168Z,10.70
2019-04-07T08:26:48.720Z,10.10
2019-04-07T08:29:16.909Z,10.83
2019-04-07T08:31:44.833Z,10.70
2019-04-07T08:34:12.090Z,11.10
2019-04-07T08:36:41.949Z,10.60
2019-04-07T08:39:19.420Z,10.10
2019-04-07T08:41:39.706Z,9.80
2019-04-07T08:44:05.100Z,11.07
2019-04-07T08:46:35.598Z,12.33
2019-04-07T08:49:01.785Z,10.47
2019-04-07T08:51:30.787Z,11.03
2019-04-07T08:53:58.551Z,10.20
2019-04-07T08:56:26.601Z,11.53
2019-04-07T08:58:54.397Z,11.90
2019-04-07T09:01:22.034Z,11.90
2019-04-07T09:03:49.638Z,11.83
2019-04-07T09:06:18.510Z,11.67
2019-04-07T09:08:46.163Z,11.87
2019-04-07T09:11:14.746Z,11.80
2019-04-07T09:13:45.216Z,12.30
2019-04-07T09:16:31.211Z,11.67
2019-04-07T09:19:18.186Z,12.37
2019-04-07T09:22:23.315Z,11.70
2019-04-07T09:25:21.536Z,11.10
2019-04-07T09:28:07.620Z,11.40
2019-04-07T09:30:53.628Z,12.43
2019-04-07T09:33:52.834Z,11.87
2019-04-07T09:36:54.548Z,11.67
2019-04-07T09:39:55.411Z,11.80
2019-04-07T09:42:24.378Z,11.47
2019-04-07T09:45:12.811Z,11.30
2019-04-07T09:48:02.861Z,12.17
2019-04-07T09:50:49.577Z,11.30
2019-04-07T09:53:22.981Z,11.43
2019-04-07T09:56:16.231Z,11.63
2019-04-07T09:58:50.331Z,12.50
2019-04-07T10:01:51.818Z,11.40
2019-04-07T10:04:42.287Z,12.87
2019-04-07T10:07:33.408Z,11.90
2019-04-07T10:10:20.125Z,11.10
2019-04-07T10:13:05.511Z,11.60
2019-04-07T10:16:01.022Z,11.47
2019-04-07T10:18:52.230Z,10.90
2019-04-07T10:21:50.892Z,11.17
2019-04-07T10:24:40.439Z,10.20
2019-04-07T10:27:17.616Z,10.60
2019-04-07T10:29:54.543Z,11.20
2019-04-07T10:32:29.419Z,11.60
2019-04-07T10:35:04.673Z,11.23
2019-04-07T10:37:53.031Z,11.10
2019-04-07T10:40:57.770Z,12.00
2019-04-07T10:43:36.973Z,11.50
2019-04-07T10:46:29.395Z,11.87
2019-04-07T10:49:10.357Z,11.43
2019-04-07T10:52:02.805Z,10.90
2019-04-07T10:54:41.511Z,11.43
2019-04-07T10:57:35.423Z,11.40
2019-04-07T11:00:22.645Z,11.37
2019-04-07T11:03:09.647Z,11.60
2019-04-07T11:05:50.391Z,11.77
2019-04-07T11:08:30.881Z,12.00
2019-04-07T11:11:23.248Z,11.63
2019-04-07T11:14:09.613Z,11.00
2019-04-07T11:16:54.853Z,10.43
2019-04-07T11:19:53.360Z,10.80
2019-04-07T11:22:38.467Z,11.80
2019-04-07T11:25:18.365Z,12.03
2019-04-07T11:28:05.333Z,11.90
2019-04-07T11:30:54.556Z,12.27
2019-04-07T11:33:43.884Z,11.23
2019-04-07T11:36:20.103Z,11.53
2019-04-07T11:38:53.453Z,10.47
2019-04-07T11:41:42.373Z,10.53
2019-04-07T11:44:29.270Z,12.03
2019-04-07T11:47:05.206Z,11.87
2019-04-07T11:49:44.714Z,11.40
2019-04-07T11:53:10.947Z,11.70
2019-04-07T11:55:57.663Z,11.53
2019-04-07T11:58:40.849Z,12.40
2019-04-07T12:01:28.167Z,11.37
2019-04-07T12:04:26.286Z,12.50
2019-04-07T12:07:11.169Z,11.80
2019-04-07T12:10:01.129Z,10.97
2019-04-07T12:12:51.598Z,12.20
2019-04-07T12:15:32.308Z,10.63
2019-04-07T12:18:18.611Z,12.60
2019-04-07T12:20:50.752Z,13.50
2019-04-07T12:23:43.309Z,12.57
2019-04-07T12:26:20.561Z,11.97
2019-04-07T12:29:10.790Z,11.80
2019-04-07T12:31:56.502Z,10.83
2019-04-07T12:34:51.947Z,11.00
2019-04-07T12:37:43.747Z,10.10
2019-04-07T12:40:48.625Z,10.23
2019-04-07T12:43:42.818Z,10.57
2019-04-07T12:46:32.165Z,10.80
2019-04-07T12:49:28.554Z,10.17
2019-04-07T12:52:15.147Z,11.30
2019-04-07T12:55:11.970Z,10.90
2019-04-07T12:58:11.727Z,10.47
2019-04-07T13:00:57.771Z,9.27
2019-04-07T13:03:42.681Z,9.67
2019-04-07T13:06:33.270Z,9.83
2019-04-07T13:09:27.832Z,8.63
2019-04-07T13:12:22.349Z,8.93
2019-04-07T13:15:21.653Z,9.33
2019-04-07T13:18:07.024Z,9.23
2019-04-07T13:20:50.271Z,9.07
2019-04-07T13:23:37.086Z,8.70
2019-04-07T13:26:35.711Z,9.70
2019-04-07T13:29:11.810Z,9.57
2019-04-07T13:32:07.642Z,9.60
2019-04-07T13:34:51.035Z,8.90
2019-04-07T13:37:26.513Z,9.67
2019-04-07T13:40:25.259Z,10.30
2019-04-07T13:43:08.769Z,10.57
2019-04-07T13:45:59.798Z,8.73
2019-04-07T13:48:49.865Z,9.43
2019-04-07T13:51:37.766Z,9.23
2019-04-07T13:54:24.293Z,9.30
2019-04-07T13:57:25.900Z,9.37
2019-04-07T14:00:16.991Z,9.43
2019-04-07T14:02:53.332Z,10.50
2019-04-07T14:05:38.949Z,10.00
2019-04-07T14:08:32.371Z,10.80
2019-04-07T14:11:17.664Z,10.13
2019-04-07T14:14:12.821Z,12.07
2019-04-07T14:16:59.572Z,10.40
2019-04-07T14:19:33.275Z,12.20
2019-04-07T14:22:11.189Z,13.30
2019-04-07T14:24:56.722Z,13.97
2019-04-07T14:27:30.910Z,12.93
2019-04-07T14:30:08.872Z,14.33
2019-04-07T14:33:00.138Z,13.37
2019-04-07T14:35:56.425Z,14.20
2019-04-07T14:38:40.205Z,15.47
2019-04-07T14:41:30.243Z,15.90
2019-04-07T14:44:17.119Z,14.87
2019-04-07T14:47:16.149Z,14.77
2019-04-07T14:50:04.881Z,15.67
2019-04-07T14:52:56.678Z,15.50
2019-04-07T14:55:49.568Z,15.40
2019-04-07T14:58:30.306Z,14.73
2019-04-07T15:01:15.826Z,15.00
2019-04-07T15:03:42.868Z,16.43
2019-04-07T15:06:10.899Z,16.43
2019-04-07T15:09:16.567Z,16.90
2019-04-07T15:12:14.725Z,18.20
2019-04-07T15:14:34.352Z,17.40
2019-04-07T15:17:01.314Z,17.97
2019-04-07T15:19:28.848Z,18.10
2019-04-07T15:21:55.752Z,18.20
2019-04-07T15:24:22.818Z,17.70
2019-04-07T15:26:50.241Z,16.80
2019-04-07T15:29:17.142Z,17.80
2019-04-07T15:31:49.046Z,17.60
2019-04-07T15:34:14.386Z,17.00
2019-04-07T15:36:42.817Z,16.30
2019-04-07T15:39:10.963Z,16.10
2019-04-07T15:41:38.282Z,17.93
2019-04-07T15:44:07.007Z,17.40
2019-04-07T15:46:34.431Z,17.20
2019-04-07T15:49:02.695Z,16.83
2019-04-07T15:51:34.108Z,16.23
2019-04-07T15:53:59.361Z,17.70
2019-04-07T15:56:27.157Z,17.20
2019-04-07T15:58:58.206Z,16.10
2019-04-07T16:01:25.727Z,15.90
2019-04-07T16:03:54.723Z,17.10
2019-04-07T16:06:21.543Z,15.83
2019-04-07T16:08:49.877Z,17.33
2019-04-07T16:11:17.746Z,16.90
2019-04-07T16:13:45.520Z,17.33
2019-04-07T16:16:13.525Z,15.90
2019-04-07T16:18:43.085Z,17.00
2019-04-07T16:21:11.150Z,16.60
2019-04-07T16:23:38.124Z,16.50
2019-04-07T16:26:05.244Z,18.00
2019-04-07T16:28:33.056Z,16.70
2019-04-07T16:30:59.854Z,17.50
2019-04-07T16:33:27.226Z,18.50
2019-04-07T16:35:56.331Z,19.43
2019-04-07T16:38:23.149Z,20.40
2019-04-07T16:40:50.214Z,20.27
2019-04-07T16:43:18.884Z,21.00
2019-04-07T16:45:50.644Z,19.53
2019-04-07T16:48:17.600Z,19.77
2019-04-07T16:50:45.145Z,19.30
2019-04-07T16:53:12.281Z,19.30
2019-04-07T16:55:41.636Z,20.23
2019-04-07T16:58:14.303Z,19.97
2019-04-07T17:00:41.881Z,19.70
2019-04-07T17:03:09.892Z,18.27
2019-04-07T17:05:37.574Z,18.67
2019-04-07T17:08:05.389Z,18.33
2019-04-07T17:10:35.078Z,18.70
2019-04-07T17:13:09.237Z,18.70
2019-04-07T17:15:30.667Z,20.50
2019-04-07T17:17:58.812Z,20.80
2019-04-07T17:20:28.121Z,20.77
2019-04-07T17:22:58.274Z,22.33
2019-04-07T17:25:25.624Z,21.57
2019-04-07T17:27:53.055Z,22.20
2019-04-07T17:30:24.377Z,21.90
2019-04-07T17:32:53.278Z,21.70
2019-04-07T17:35:21.430Z,21.47
2019-04-07T17:37:50.633Z,22.50
2019-04-07T17:40:19.178Z,22.40
2019-04-07T17:42:48.353Z,23.07
2019-04-07T17:45:46.251Z,23.30
2019-04-07T17:48:25.559Z,22.40
2019-04-07T17:51:08.727Z,21.40
2019-04-07T17:53:57.216Z,22.77
2019-04-07T17:56:40.658Z,22.20
2019-04-07T17:59:37.780Z,22.70
2019-04-07T18:02:30.394Z,23.50
2019-04-07T18:05:27.773Z,22.40
2019-04-07T18:08:17.867Z,22.83
2019-04-07T18:10:57.848Z,23.47
2019-04-07T18:13:49.959Z,22.97
2019-04-07T18:16:46.168Z,23.73
2019-04-07T18:19:42.033Z,22.60
2019-04-07T18:22:22.117Z,23.80
2019-04-07T18:24:54.551Z,25.53
2019-04-07T18:27:41.818Z,24.20
2019-04-07T18:30:33.401Z,25.10
2019-04-07T18:33:09.656Z,23.57
2019-04-07T18:35:53.975Z,22.90
2019-04-07T18:38:45.037Z,24.03
2019-04-07T18:41:25.172Z,23.70
2019-04-07T18:44:21.007Z,22.60
2019-04-07T18:47:15.515Z,24.00
2019-04-07T18:50:20.422Z,22.47
2019-04-07T18:53:07.258Z,23.37
2019-04-07T18:55:52.604Z,23.50
2019-04-07T18:58:31.170Z,21.83
2019-04-07T19:01:12.452Z,21.63
2019-04-07T19:04:06.715Z,20.30
2019-04-07T19:07:02.620Z,20.33
2019-04-07T19:09:35.797Z,20.03
2019-04-07T19:12:23.135Z,20.53
2019-04-07T19:15:28.237Z,19.63
2019-04-07T19:18:27.184Z,19.67
2019-04-07T19:21:20.381Z,20.37
2019-04-07T19:23:53.890Z,21.00
2019-04-07T19:26:41.071Z,19.80
2019-04-07T19:29:28.348Z,19.20
2019-04-07T19:32:15.196Z,19.10
2019-04-07T19:35:03.270Z,20.00
2019-04-07T19:37:43.068Z,19.87
2019-04-07T19:40:29.934Z,19.50
2019-04-07T19:43:16.672Z,19.30
2019-04-07T19:46:00.613Z,19.67
2019-04-07T19:48:47.299Z,17.00
2019-04-07T19:51:38.251Z,17.83
2019-04-07T19:54:40.156Z,17.63
2019-04-07T19:57:44.895Z,17.20
2019-04-07T20:00:34.219Z,17.40
2019-04-07T20:03:28.853Z,16.80
2019-04-07T20:06:15.358Z,16.33
2019-04-07T20:08:53.480Z,15.67
2019-04-07T20:11:43.856Z,14.83
2019-04-07T20:14:28.428Z,14.00
2019-04-07T20:17:04.591Z,13.07
2019-04-07T20:19:55.659Z,10.90
2019-04-07T20:22:39.254Z,9.80
2019-04-07T20:25:26.760Z,8.90
2019-04-07T20:28:04.250Z,8.30
2019-04-07T20:31:02.659Z,8.10
2019-04-07T20:33:35.924Z,6.97
2019-04-07T20:36:24.214Z,6.70
2019-04-07T20:39:32.545Z,6.03
2019-04-07T20:42:05.254Z,5.70
2019-04-07T20:44:59.993Z,4.93
2019-04-07T20:47:49.179Z,5.70
2019-04-07T20:50:46.086Z,5.27
2019-04-07T20:53:40.852Z,4.60
2019-04-07T20:56:27.382Z,4.33
2019-04-07T20:59:12.603Z,4.03
2019-04-07T21:02:05.476Z,4.00
2019-04-07T21:04:50.918Z,4.40
2019-04-07T21:07:23.360Z,4.17
2019-04-07T21:10:14.731Z,4.07
2019-04-07T21:13:02.303Z,3.73
2019-04-07T21:16:03.644Z,3.40
2019-04-07T21:18:49.004Z,3.53
2019-04-07T21:21:29.167Z,3.40
2019-04-07T21:24:19.027Z,3.87
2019-04-07T21:27:10.287Z,3.80
2019-04-07T21:29:47.907Z,3.93
2019-04-07T21:32:33.315Z,3.70
2019-04-07T21:35:19.645Z,3.40
2019-04-07T21:38:06.257Z,4.00
2019-04-07T21:40:55.519Z,3.50
2019-04-07T21:43:38.960Z,3.30
2019-04-07T21:46:13.177Z,3.90
2019-04-07T21:48:49.245Z,3.73
2019-04-07T21:51:46.523Z,4.10
2019-04-07T21:54:24.812Z,4.30
2019-04-07T21:57:26.733Z,3.70
2019-04-07T22:00:12.655Z,4.00
2019-04-07T22:02:48.329Z,3.87
2019-04-07T22:05:26.879Z,4.70
2019-04-07T22:08:12.855Z,3.70
2019-04-07T22:10:36.293Z,4.90
2019-04-07T22:13:05.175Z,4.67
2019-04-07T22:15:43.089Z,4.07
2019-04-07T22:18:00.616Z,3.63
2019-04-07T22:20:27.873Z,4.30
2019-04-07T22:22:59.159Z,4.50
2019-04-07T22:25:30.555Z,3.80
2019-04-07T22:27:59.014Z,3.90
2019-04-07T22:30:26.243Z,3.60
2019-04-07T22:32:54.144Z,4.10
2019-04-07T22:35:21.289Z,4.00
2019-04-07T22:37:49.958Z,4.57
2019-04-07T22:40:17.464Z,4.70
2019-04-07T22:42:45.903Z,4.97
2019-04-07T22:45:13.631Z,5.00
2019-04-07T22:47:40.323Z,4.70
2019-04-07T22:50:07.994Z,4.90
2019-04-07T22:52:34.978Z,5.33
2019-04-07T22:55:05.406Z,4.67
2019-04-07T22:57:31.309Z,4.67
2019-04-07T22:59:58.732Z,5.00
2019-04-07T23:02:25.619Z,5.67
2019-04-07T23:04:52.704Z,5.73
2019-04-07T23:07:20.195Z,5.60
2019-04-07T23:09:47.499Z,6.33
2019-04-07T23:12:16.917Z,6.30
2019-04-07T23:14:44.255Z,6.57
2019-04-07T23:17:12.006Z,6.90
2019-04-07T23:19:38.811Z,7.60
2019-04-07T23:22:05.520Z,7.53
2019-04-07T23:24:32.247Z,7.83
2019-04-07T23:26:59.011Z,8.90
2019-04-07T23:29:26.207Z,8.50
2019-04-07T23:31:53.479Z,9.30
2019-04-07T23:34:21.121Z,9.80
2019-04-07T23:36:47.926Z,9.70
2019-04-07T23:39:15.257Z,10.20
2019-04-07T23:41:45.627Z,10.47
2019-04-07T23:44:12.961Z,11.43
2019-04-07T23:46:39.855Z,11.53
2019-04-07T23:49:06.581Z,10.60
2019-04-07T23:51:33.323Z,11.30
2019-04-07T23:54:07.506Z,12.63
2019-04-07T23:56:35.666Z,12.43
2019-04-07T23:59:02.654Z,12.30
